createdAt,value
2022-08-17T00:03:40.693Z,0
2022-08-17T00:18:54.165Z,0.01
2022-08-17T00:33:32.946Z,0
2022-08-17T00:48:29.045Z,0
2022-08-17T01:03:25.382Z,0
2022-08-17T01:18:21.274Z,0
2022-08-17T01:33:17.647Z,0
2022-08-17T01:48:13.979Z,0
2022-08-17T02:03:09.827Z,0.01
2022-08-17T02:18:05.883Z,0.01
2022-08-17T02:33:04.120Z,0
2022-08-17T02:47:58.375Z,0.01
2022-08-17T03:02:54.366Z,0.01
2022-08-17T03:17:51.039Z,0
2022-08-17T03:32:46.970Z,0.01
2022-08-17T03:47:43.168Z,0
2022-08-17T04:02:39.320Z,0.02
2022-08-17T04:17:35.712Z,0.03
2022-08-17T04:32:59.231Z,0.02
2022-08-17T04:47:28.349Z,0.03
2022-08-17T05:02:24.629Z,0.04
2022-08-17T05:17:21.008Z,0.05
2022-08-17T05:32:37.700Z,0.07
2022-08-17T05:47:13.958Z,0.09
2022-08-17T06:02:09.948Z,0.08
2022-08-17T06:17:07.118Z,0.1
2022-08-17T06:32:03.927Z,0.1
2022-08-17T06:47:00.633Z,0.11
2022-08-17T07:01:57.156Z,0.1
2022-08-17T07:16:53.855Z,0.12
2022-08-17T07:31:49.910Z,0.12
2022-08-17T07:46:46.093Z,0.11
2022-08-17T08:01:42.843Z,0.08
2022-08-17T08:16:38.977Z,0.08
2022-08-17T08:31:37.736Z,0.07
2022-08-17T08:46:30.812Z,0.06
2022-08-17T09:01:26.639Z,0.08
2022-08-17T09:16:22.721Z,0.17
2022-08-17T09:31:19.386Z,0.44
2022-08-17T09:46:16.630Z,0.99
2022-08-17T10:01:14.253Z,0.7
2022-08-17T10:16:11.500Z,0.31
2022-08-17T10:46:09.183Z,0.64
2022-08-17T11:01:02.087Z,0.29
2022-08-17T11:15:59.995Z,0.24
2022-08-17T11:30:53.861Z,0.9
2022-08-17T11:45:50.822Z,0.79
2022-08-17T12:00:47.705Z,1.69
2022-08-17T12:15:44.454Z,1.31
2022-08-17T12:30:40.753Z,1.01
2022-08-17T12:45:37.704Z,1.09
2022-08-17T13:00:34.487Z,0.32
2022-08-17T13:15:30.117Z,0.31
2022-08-17T13:30:26.651Z,0.21
2022-08-17T13:45:35.842Z,0.3
2022-08-17T14:00:18.138Z,0.3
2022-08-17T14:15:14.074Z,0.21
2022-08-17T14:30:09.514Z,0.21
2022-08-17T14:45:05.870Z,0.2
2022-08-17T15:00:01.930Z,0.2
2022-08-17T15:14:58.615Z,0.19
2022-08-17T15:29:54.308Z,0.19
2022-08-17T15:44:50.710Z,0.13
2022-08-17T15:59:46.795Z,0.12
2022-08-17T16:14:42.903Z,0.11
2022-08-17T16:29:39.374Z,0.1
2022-08-17T16:44:35.379Z,0.1
2022-08-17T16:59:39.544Z,0.11
2022-08-17T17:14:27.096Z,0.1
2022-08-17T17:29:22.735Z,0.06
2022-08-17T17:44:19.798Z,0.08
2022-08-17T17:59:15.420Z,0.06
2022-08-17T18:14:11.485Z,0.06
2022-08-17T18:29:07.508Z,0.02
2022-08-17T18:44:03.282Z,0.02
2022-08-17T18:58:59.368Z,0.01
2022-08-17T19:13:55.078Z,0
2022-08-17T19:28:51.391Z,0
2022-08-17T19:43:47.486Z,0
2022-08-17T19:58:43.406Z,0.01
2022-08-17T20:13:39.409Z,0
2022-08-17T20:28:35.574Z,0
2022-08-17T20:43:31.474Z,0
2022-08-17T20:58:29.899Z,0
2022-08-17T21:13:23.746Z,0.01
2022-08-17T21:28:20.459Z,0
2022-08-17T21:43:16.624Z,0
2022-08-17T21:58:14.442Z,0
2022-08-17T22:13:16.316Z,0.01
2022-08-17T22:28:05.613Z,0.01
2022-08-17T22:43:01.354Z,0
2022-08-17T22:57:57.670Z,0
2022-08-17T23:12:53.282Z,0
2022-08-17T23:27:49.208Z,0
2022-08-17T23:42:46.195Z,0
2022-08-17T23:57:41.017Z,0
